sensor_id;sensor_type;location;lat;lon;timestamp;temperature;humidity
46754;DHT22;32500;50.620;3.400;2022-11-15T00:01:25;16.40;68.80
46754;DHT22;32500;50.620;3.400;2022-11-15T00:03:51;16.30;68.70
46754;DHT22;32500;50.620;3.400;2022-11-15T00:06:17;16.30;68.90
46754;DHT22;32500;50.620;3.400;2022-11-15T00:08:42;16.30;69.00
46754;DHT22;32500;50.620;3.400;2022-11-15T00:11:10;16.30;68.90
46754;DHT22;32500;50.620;3.400;2022-11-15T00:13:36;16.30;68.90
46754;DHT22;32500;50.620;3.400;2022-11-15T00:16:02;16.30;68.80
46754;DHT22;32500;50.620;3.400;2022-11-15T00:18:29;16.30;68.80
46754;DHT22;32500;50.620;3.400;2022-11-15T00:20:55;16.30;68.70
46754;DHT22;32500;50.620;3.400;2022-11-15T00:23:21;16.30;68.70
46754;DHT22;32500;50.620;3.400;2022-11-15T00:25:46;16.30;68.70
46754;DHT22;32500;50.620;3.400;2022-11-15T00:28:12;16.30;68.80
46754;DHT22;32500;50.620;3.400;2022-11-15T00:30:38;16.30;68.80
46754;DHT22;32500;50.620;3.400;2022-11-15T00:33:04;16.30;68.70
46754;DHT22;32500;50.620;3.400;2022-11-15T00:35:34;16.30;68.70
46754;DHT22;32500;50.620;3.400;2022-11-15T00:38:00;16.30;68.60
46754;DHT22;32500;50.620;3.400;2022-11-15T00:40:26;16.30;68.70
46754;DHT22;32500;50.620;3.400;2022-11-15T00:42:52;16.30;68.70
46754;DHT22;32500;50.620;3.400;2022-11-15T00:45:17;16.30;68.70
46754;DHT22;32500;50.620;3.400;2022-11-15T00:47:46;16.30;68.70
46754;DHT22;32500;50.620;3.400;2022-11-15T00:50:12;16.30;68.70
46754;DHT22;32500;50.620;3.400;2022-11-15T00:52:38;16.20;68.80
46754;DHT22;32500;50.620;3.400;2022-11-15T00:55:05;16.20;68.90
46754;DHT22;32500;50.620;3.400;2022-11-15T00:57:30;16.20;68.80
46754;DHT22;32500;50.620;3.400;2022-11-15T00:59:56;16.20;68.80
46754;DHT22;32500;50.620;3.400;2022-11-15T01:02:22;16.20;68.70
46754;DHT22;32500;50.620;3.400;2022-11-15T01:04:47;16.20;68.70
46754;DHT22;32500;50.620;3.400;2022-11-15T01:07:13;16.20;68.70
46754;DHT22;32500;50.620;3.400;2022-11-15T01:09:39;16.20;68.80
46754;DHT22;32500;50.620;3.400;2022-11-15T01:12:05;16.20;68.70
46754;DHT22;32500;50.620;3.400;2022-11-15T01:14:30;16.20;68.70
46754;DHT22;32500;50.620;3.400;2022-11-15T01:16:56;16.20;68.70
46754;DHT22;32500;50.620;3.400;2022-11-15T01:19:22;16.20;68.70
46754;DHT22;32500;50.620;3.400;2022-11-15T01:21:51;16.20;68.70
46754;DHT22;32500;50.620;3.400;2022-11-15T01:24:16;16.20;68.60
46754;DHT22;32500;50.620;3.400;2022-11-15T01:26:42;16.20;68.70
46754;DHT22;32500;50.620;3.400;2022-11-15T01:29:08;16.20;68.70
46754;DHT22;32500;50.620;3.400;2022-11-15T01:31:33;16.20;68.70
46754;DHT22;32500;50.620;3.400;2022-11-15T01:33:59;16.20;68.70
46754;DHT22;32500;50.620;3.400;2022-11-15T01:36:24;16.20;68.70
46754;DHT22;32500;50.620;3.400;2022-11-15T01:38:55;16.20;68.70
46754;DHT22;32500;50.620;3.400;2022-11-15T01:41:26;16.20;68.70
46754;DHT22;32500;50.620;3.400;2022-11-15T01:43:54;16.20;68.70
46754;DHT22;32500;50.620;3.400;2022-11-15T01:46:28;16.10;68.70
46754;DHT22;32500;50.620;3.400;2022-11-15T01:49:00;16.20;68.80
46754;DHT22;32500;50.620;3.400;2022-11-15T01:51:29;16.10;68.70
46754;DHT22;32500;50.620;3.400;2022-11-15T01:53:58;16.10;68.70
46754;DHT22;32500;50.620;3.400;2022-11-15T01:56:29;16.10;68.70
46754;DHT22;32500;50.620;3.400;2022-11-15T01:58:57;16.10;68.80
46754;DHT22;32500;50.620;3.400;2022-11-15T02:01:25;16.10;68.80
46754;DHT22;32500;50.620;3.400;2022-11-15T02:04:03;16.10;68.70
46754;DHT22;32500;50.620;3.400;2022-11-15T02:06:31;16.10;68.70
46754;DHT22;32500;50.620;3.400;2022-11-15T02:08:57;16.10;68.70
46754;DHT22;32500;50.620;3.400;2022-11-15T02:11:24;16.10;68.80
46754;DHT22;32500;50.620;3.400;2022-11-15T02:13:50;16.10;68.90
46754;DHT22;32500;50.620;3.400;2022-11-15T02:25:45;16.10;68.90
46754;DHT22;32500;50.620;3.400;2022-11-15T02:27:59;16.00;68.90
46754;DHT22;32500;50.620;3.400;2022-11-15T02:31:24;16.00;68.90
46754;DHT22;32500;50.620;3.400;2022-11-15T02:41:57;16.00;69.00
46754;DHT22;32500;50.620;3.400;2022-11-15T02:44:40;16.00;69.10
46754;DHT22;32500;50.620;3.400;2022-11-15T02:47:13;16.00;69.00
46754;DHT22;32500;50.620;3.400;2022-11-15T02:49:45;16.00;69.00
46754;DHT22;32500;50.620;3.400;2022-11-15T02:52:15;16.00;69.10
46754;DHT22;32500;50.620;3.400;2022-11-15T02:54:41;16.00;69.20
46754;DHT22;32500;50.620;3.400;2022-11-15T02:57:14;15.90;69.10
46754;DHT22;32500;50.620;3.400;2022-11-15T03:00:04;15.90;69.20
46754;DHT22;32500;50.620;3.400;2022-11-15T03:02:48;15.90;69.30
46754;DHT22;32500;50.620;3.400;2022-11-15T03:11:11;15.90;69.10
46754;DHT22;32500;50.620;3.400;2022-11-15T03:16:36;15.90;69.30
46754;DHT22;32500;50.620;3.400;2022-11-15T03:19:33;15.90;69.30
46754;DHT22;32500;50.620;3.400;2022-11-15T03:22:03;15.90;69.20
46754;DHT22;32500;50.620;3.400;2022-11-15T03:24:31;15.90;69.30
46754;DHT22;32500;50.620;3.400;2022-11-15T03:27:00;15.90;69.40
46754;DHT22;32500;50.620;3.400;2022-11-15T03:29:31;15.90;69.40
46754;DHT22;32500;50.620;3.400;2022-11-15T03:32:02;15.90;70.10
46754;DHT22;32500;50.620;3.400;2022-11-15T03:34:37;15.80;69.40
46754;DHT22;32500;50.620;3.400;2022-11-15T03:37:04;15.80;69.40
46754;DHT22;32500;50.620;3.400;2022-11-15T03:39:30;15.80;69.40
46754;DHT22;32500;50.620;3.400;2022-11-15T03:42:26;15.80;69.50
46754;DHT22;32500;50.620;3.400;2022-11-15T03:45:03;15.80;69.50
46754;DHT22;32500;50.620;3.400;2022-11-15T03:47:51;15.80;69.60
46754;DHT22;32500;50.620;3.400;2022-11-15T03:50:20;15.80;69.60
46754;DHT22;32500;50.620;3.400;2022-11-15T03:52:47;15.80;69.60
46754;DHT22;32500;50.620;3.400;2022-11-15T03:55:17;15.80;69.80
46754;DHT22;32500;50.620;3.400;2022-11-15T03:57:43;15.80;69.60
46754;DHT22;32500;50.620;3.400;2022-11-15T04:00:10;15.80;69.60
46754;DHT22;32500;50.620;3.400;2022-11-15T04:02:36;15.70;69.70
46754;DHT22;32500;50.620;3.400;2022-11-15T04:05:02;15.70;69.80
46754;DHT22;32500;50.620;3.400;2022-11-15T04:07:28;15.70;69.80
46754;DHT22;32500;50.620;3.400;2022-11-15T04:09:53;15.70;70.00
46754;DHT22;32500;50.620;3.400;2022-11-15T04:12:33;15.70;69.80
46754;DHT22;32500;50.620;3.400;2022-11-15T04:15:20;15.70;69.70
46754;DHT22;32500;50.620;3.400;2022-11-15T04:17:54;15.70;69.90
46754;DHT22;32500;50.620;3.400;2022-11-15T04:20:28;15.70;69.90
46754;DHT22;32500;50.620;3.400;2022-11-15T04:23:18;15.70;69.90
46754;DHT22;32500;50.620;3.400;2022-11-15T04:26:05;15.70;70.00
46754;DHT22;32500;50.620;3.400;2022-11-15T04:28:32;15.60;70.00
46754;DHT22;32500;50.620;3.400;2022-11-15T04:30:58;15.60;70.00
46754;DHT22;32500;50.620;3.400;2022-11-15T04:33:24;15.60;70.10
46754;DHT22;32500;50.620;3.400;2022-11-15T04:35:49;15.60;70.00
46754;DHT22;32500;50.620;3.400;2022-11-15T04:38:35;15.60;70.00
46754;DHT22;32500;50.620;3.400;2022-11-15T04:41:00;15.60;70.00
46754;DHT22;32500;50.620;3.400;2022-11-15T04:43:26;15.60;70.20
46754;DHT22;32500;50.620;3.400;2022-11-15T04:45:52;15.60;70.10
46754;DHT22;32500;50.620;3.400;2022-11-15T04:48:18;15.60;70.20
46754;DHT22;32500;50.620;3.400;2022-11-15T04:50:43;15.60;70.20
46754;DHT22;32500;50.620;3.400;2022-11-15T04:53:09;15.50;70.10
46754;DHT22;32500;50.620;3.400;2022-11-15T04:55:34;15.60;70.20
46754;DHT22;32500;50.620;3.400;2022-11-15T04:58:01;15.50;70.10
46754;DHT22;32500;50.620;3.400;2022-11-15T05:00:28;15.50;70.00
46754;DHT22;32500;50.620;3.400;2022-11-15T05:02:54;15.50;70.20
46754;DHT22;32500;50.620;3.400;2022-11-15T05:05:38;15.50;70.20
46754;DHT22;32500;50.620;3.400;2022-11-15T05:08:04;15.50;70.30
46754;DHT22;32500;50.620;3.400;2022-11-15T05:10:30;15.50;70.40
46754;DHT22;32500;50.620;3.400;2022-11-15T05:12:55;15.50;70.40
46754;DHT22;32500;50.620;3.400;2022-11-15T05:15:21;15.50;70.40
46754;DHT22;32500;50.620;3.400;2022-11-15T05:17:47;15.50;70.50
46754;DHT22;32500;50.620;3.400;2022-11-15T05:20:13;15.40;70.50
46754;DHT22;32500;50.620;3.400;2022-11-15T05:22:39;15.40;70.50
46754;DHT22;32500;50.620;3.400;2022-11-15T05:25:06;15.50;70.60
46754;DHT22;32500;50.620;3.400;2022-11-15T05:27:33;15.40;70.50
46754;DHT22;32500;50.620;3.400;2022-11-15T05:29:59;15.40;70.60
46754;DHT22;32500;50.620;3.400;2022-11-15T05:32:25;15.50;70.60
46754;DHT22;32500;50.620;3.400;2022-11-15T05:34:51;15.40;70.60
46754;DHT22;32500;50.620;3.400;2022-11-15T05:37:17;15.40;70.60
46754;DHT22;32500;50.620;3.400;2022-11-15T05:39:43;15.40;70.60
46754;DHT22;32500;50.620;3.400;2022-11-15T05:42:13;15.40;70.60
46754;DHT22;32500;50.620;3.400;2022-11-15T05:44:46;15.40;70.70
46754;DHT22;32500;50.620;3.400;2022-11-15T05:47:16;15.40;70.80
46754;DHT22;32500;50.620;3.400;2022-11-15T05:49:44;15.40;71.00
46754;DHT22;32500;50.620;3.400;2022-11-15T05:52:14;15.40;71.90
46754;DHT22;32500;50.620;3.400;2022-11-15T05:54:41;15.40;71.30
46754;DHT22;32500;50.620;3.400;2022-11-15T05:57:07;15.40;71.40
46754;DHT22;32500;50.620;3.400;2022-11-15T05:59:34;15.40;71.50
46754;DHT22;32500;50.620;3.400;2022-11-15T06:02:01;15.40;71.70
46754;DHT22;32500;50.620;3.400;2022-11-15T06:04:26;15.40;72.00
46754;DHT22;32500;50.620;3.400;2022-11-15T06:06:52;15.30;71.90
46754;DHT22;32500;50.620;3.400;2022-11-15T06:09:18;15.30;72.20
46754;DHT22;32500;50.620;3.400;2022-11-15T06:11:43;15.30;72.30
46754;DHT22;32500;50.620;3.400;2022-11-15T06:14:09;15.40;72.40
46754;DHT22;32500;50.620;3.400;2022-11-15T06:16:34;15.30;72.40
46754;DHT22;32500;50.620;3.400;2022-11-15T06:19:00;15.30;72.30
46754;DHT22;32500;50.620;3.400;2022-11-15T06:21:26;15.30;72.30
46754;DHT22;32500;50.620;3.400;2022-11-15T06:23:53;15.30;72.40
46754;DHT22;32500;50.620;3.400;2022-11-15T06:26:19;15.30;72.40
46754;DHT22;32500;50.620;3.400;2022-11-15T06:28:44;15.30;72.30
46754;DHT22;32500;50.620;3.400;2022-11-15T06:31:11;15.30;72.20
46754;DHT22;32500;50.620;3.400;2022-11-15T06:33:37;15.20;72.30
46754;DHT22;32500;50.620;3.400;2022-11-15T06:36:05;15.20;72.50
46754;DHT22;32500;50.620;3.400;2022-11-15T06:38:32;15.20;72.50
46754;DHT22;32500;50.620;3.400;2022-11-15T06:41:06;15.20;72.40
46754;DHT22;32500;50.620;3.400;2022-11-15T06:43:32;15.20;72.40
46754;DHT22;32500;50.620;3.400;2022-11-15T06:45:59;15.20;72.30
46754;DHT22;32500;50.620;3.400;2022-11-15T06:48:25;15.20;72.30
46754;DHT22;32500;50.620;3.400;2022-11-15T06:50:55;15.20;72.40
46754;DHT22;32500;50.620;3.400;2022-11-15T06:53:22;15.20;72.40
46754;DHT22;32500;50.620;3.400;2022-11-15T06:55:47;15.20;72.30
46754;DHT22;32500;50.620;3.400;2022-11-15T06:58:13;15.20;72.20
46754;DHT22;32500;50.620;3.400;2022-11-15T07:00:39;15.20;72.20
46754;DHT22;32500;50.620;3.400;2022-11-15T07:03:05;15.20;72.20
46754;DHT22;32500;50.620;3.400;2022-11-15T07:05:31;15.20;72.30
46754;DHT22;32500;50.620;3.400;2022-11-15T07:07:58;15.10;72.30
46754;DHT22;32500;50.620;3.400;2022-11-15T07:10:24;15.10;72.20
46754;DHT22;32500;50.620;3.400;2022-11-15T07:12:51;15.20;72.30
46754;DHT22;32500;50.620;3.400;2022-11-15T07:15:18;15.20;72.20
46754;DHT22;32500;50.620;3.400;2022-11-15T07:17:44;15.20;72.10
46754;DHT22;32500;50.620;3.400;2022-11-15T07:20:10;15.20;72.10
46754;DHT22;32500;50.620;3.400;2022-11-15T07:22:36;15.20;72.20
46754;DHT22;32500;50.620;3.400;2022-11-15T07:25:02;15.20;72.20
46754;DHT22;32500;50.620;3.400;2022-11-15T07:27:28;15.20;72.10
46754;DHT22;32500;50.620;3.400;2022-11-15T07:29:54;15.20;72.00
46754;DHT22;32500;50.620;3.400;2022-11-15T07:32:19;15.20;71.90
46754;DHT22;32500;50.620;3.400;2022-11-15T07:34:45;15.10;71.90
46754;DHT22;32500;50.620;3.400;2022-11-15T07:37:11;15.20;72.00
46754;DHT22;32500;50.620;3.400;2022-11-15T07:39:37;15.20;72.00
46754;DHT22;32500;50.620;3.400;2022-11-15T07:42:03;15.20;71.90
46754;DHT22;32500;50.620;3.400;2022-11-15T07:44:47;15.20;71.80
46754;DHT22;32500;50.620;3.400;2022-11-15T07:47:12;15.20;71.70
46754;DHT22;32500;50.620;3.400;2022-11-15T07:49:38;15.20;71.70
46754;DHT22;32500;50.620;3.400;2022-11-15T07:52:04;15.20;71.70
46754;DHT22;32500;50.620;3.400;2022-11-15T07:54:29;15.20;71.70
46754;DHT22;32500;50.620;3.400;2022-11-15T07:56:55;15.20;71.70
46754;DHT22;32500;50.620;3.400;2022-11-15T07:59:21;15.20;71.60
46754;DHT22;32500;50.620;3.400;2022-11-15T08:01:46;15.20;71.50
46754;DHT22;32500;50.620;3.400;2022-11-15T08:04:12;15.20;71.50
46754;DHT22;32500;50.620;3.400;2022-11-15T08:06:38;15.20;71.50
46754;DHT22;32500;50.620;3.400;2022-11-15T08:09:03;15.20;71.50
46754;DHT22;32500;50.620;3.400;2022-11-15T08:11:29;15.20;71.50
46754;DHT22;32500;50.620;3.400;2022-11-15T08:13:55;15.20;71.50
46754;DHT22;32500;50.620;3.400;2022-11-15T08:16:21;15.20;71.50
46754;DHT22;32500;50.620;3.400;2022-11-15T08:18:47;15.20;72.20
46754;DHT22;32500;50.620;3.400;2022-11-15T08:21:19;15.20;71.50
46754;DHT22;32500;50.620;3.400;2022-11-15T08:23:45;15.20;71.30
46754;DHT22;32500;50.620;3.400;2022-11-15T08:26:11;15.30;71.10
46754;DHT22;32500;50.620;3.400;2022-11-15T08:28:38;15.20;71.00
46754;DHT22;32500;50.620;3.400;2022-11-15T08:31:04;15.30;71.10
46754;DHT22;32500;50.620;3.400;2022-11-15T08:33:31;15.30;71.10
46754;DHT22;32500;50.620;3.400;2022-11-15T08:35:59;15.30;71.00
46754;DHT22;32500;50.620;3.400;2022-11-15T08:38:25;15.30;70.30
46754;DHT22;32500;50.620;3.400;2022-11-15T08:40:52;15.30;70.90
46754;DHT22;32500;50.620;3.400;2022-11-15T08:43:19;15.30;70.80
46754;DHT22;32500;50.620;3.400;2022-11-15T08:45:44;15.30;70.70
46754;DHT22;32500;50.620;3.400;2022-11-15T08:48:10;15.30;70.80
46754;DHT22;32500;50.620;3.400;2022-11-15T08:50:36;15.30;70.60
46754;DHT22;32500;50.620;3.400;2022-11-15T08:53:06;15.30;70.70
46754;DHT22;32500;50.620;3.400;2022-11-15T08:55:32;15.30;71.30
46754;DHT22;32500;50.620;3.400;2022-11-15T08:57:58;15.30;70.70
46754;DHT22;32500;50.620;3.400;2022-11-15T09:00:24;15.30;70.60
46754;DHT22;32500;50.620;3.400;2022-11-15T09:02:49;15.30;70.60
46754;DHT22;32500;50.620;3.400;2022-11-15T09:05:15;15.30;70.60
46754;DHT22;32500;50.620;3.400;2022-11-15T09:07:41;15.30;70.50
46754;DHT22;32500;50.620;3.400;2022-11-15T09:10:07;15.30;70.40
46754;DHT22;32500;50.620;3.400;2022-11-15T09:12:33;15.30;70.40
46754;DHT22;32500;50.620;3.400;2022-11-15T09:14:58;15.40;70.50
46754;DHT22;32500;50.620;3.400;2022-11-15T09:17:24;15.30;70.40
46754;DHT22;32500;50.620;3.400;2022-11-15T09:19:50;15.30;70.30
46754;DHT22;32500;50.620;3.400;2022-11-15T09:22:15;15.40;70.40
46754;DHT22;32500;50.620;3.400;2022-11-15T09:24:41;15.40;70.30
46754;DHT22;32500;50.620;3.400;2022-11-15T09:27:06;15.40;70.30
46754;DHT22;32500;50.620;3.400;2022-11-15T09:29:32;15.40;70.20
46754;DHT22;32500;50.620;3.400;2022-11-15T09:31:58;15.40;70.20
46754;DHT22;32500;50.620;3.400;2022-11-15T09:34:23;15.40;70.20
46754;DHT22;32500;50.620;3.400;2022-11-15T09:36:49;15.40;70.00
46754;DHT22;32500;50.620;3.400;2022-11-15T09:39:14;15.40;70.00
46754;DHT22;32500;50.620;3.400;2022-11-15T09:45:09;15.50;70.00
46754;DHT22;32500;50.620;3.400;2022-11-15T09:50:10;15.50;70.00
46754;DHT22;32500;50.620;3.400;2022-11-15T09:52:37;15.50;69.80
46754;DHT22;32500;50.620;3.400;2022-11-15T09:55:05;15.50;69.80
46754;DHT22;32500;50.620;3.400;2022-11-15T09:58:15;15.50;69.80
46754;DHT22;32500;50.620;3.400;2022-11-15T10:00:40;15.50;69.80
46754;DHT22;32500;50.620;3.400;2022-11-15T10:03:14;15.50;69.60
46754;DHT22;32500;50.620;3.400;2022-11-15T10:05:47;15.60;69.70
46754;DHT22;32500;50.620;3.400;2022-11-15T10:11:09;15.60;69.50
46754;DHT22;32500;50.620;3.400;2022-11-15T10:13:41;15.60;69.50
46754;DHT22;32500;50.620;3.400;2022-11-15T10:19:09;15.60;69.40
46754;DHT22;32500;50.620;3.400;2022-11-15T10:24:12;15.60;69.30
46754;DHT22;32500;50.620;3.400;2022-11-15T10:26:39;15.60;69.30
46754;DHT22;32500;50.620;3.400;2022-11-15T10:29:10;15.60;69.30
46754;DHT22;32500;50.620;3.400;2022-11-15T10:31:39;15.60;69.30
46754;DHT22;32500;50.620;3.400;2022-11-15T10:34:21;15.60;69.30
46754;DHT22;32500;50.620;3.400;2022-11-15T10:36:58;15.60;69.30
46754;DHT22;32500;50.620;3.400;2022-11-15T10:39:24;15.60;69.30
46754;DHT22;32500;50.620;3.400;2022-11-15T10:41:50;15.60;69.30
46754;DHT22;32500;50.620;3.400;2022-11-15T10:44:18;15.60;69.30
46754;DHT22;32500;50.620;3.400;2022-11-15T10:47:33;15.60;69.20
46754;DHT22;32500;50.620;3.400;2022-11-15T10:49:34;15.60;69.20
46754;DHT22;32500;50.620;3.400;2022-11-15T10:54:47;15.70;69.20
46754;DHT22;32500;50.620;3.400;2022-11-15T10:57:18;15.70;69.10
46754;DHT22;32500;50.620;3.400;2022-11-15T11:00:03;15.60;69.00
46754;DHT22;32500;50.620;3.400;2022-11-15T11:02:45;15.70;69.10
46754;DHT22;32500;50.620;3.400;2022-11-15T11:08:25;15.70;69.00
46754;DHT22;32500;50.620;3.400;2022-11-15T11:11:00;15.70;69.00
46754;DHT22;32500;50.620;3.400;2022-11-15T11:22:25;15.60;69.00
46754;DHT22;32500;50.620;3.400;2022-11-15T11:25:12;15.70;69.00
46754;DHT22;32500;50.620;3.400;2022-11-15T11:27:43;15.60;69.00
46754;DHT22;32500;50.620;3.400;2022-11-15T11:30:23;15.70;69.00
46754;DHT22;32500;50.620;3.400;2022-11-15T11:32:58;15.70;69.00
46754;DHT22;32500;50.620;3.400;2022-11-15T11:38:25;15.70;69.00
46754;DHT22;32500;50.620;3.400;2022-11-15T11:46:47;15.70;69.10
46754;DHT22;32500;50.620;3.400;2022-11-15T11:51:49;15.70;69.00
46754;DHT22;32500;50.620;3.400;2022-11-15T11:56:54;15.70;69.00
46754;DHT22;32500;50.620;3.400;2022-11-15T11:59:43;15.70;69.80
46754;DHT22;32500;50.620;3.400;2022-11-15T12:02:35;15.60;69.10
46754;DHT22;32500;50.620;3.400;2022-11-15T12:05:22;15.70;69.00
46754;DHT22;32500;50.620;3.400;2022-11-15T12:07:54;15.70;69.00
46754;DHT22;32500;50.620;3.400;2022-11-15T12:10:23;15.70;69.00
46754;DHT22;32500;50.620;3.400;2022-11-15T12:13:10;15.70;69.00
46754;DHT22;32500;50.620;3.400;2022-11-15T12:15:43;15.70;69.00
46754;DHT22;32500;50.620;3.400;2022-11-15T12:18:15;15.70;69.10
46754;DHT22;32500;50.620;3.400;2022-11-15T12:20:53;15.60;69.00
46754;DHT22;32500;50.620;3.400;2022-11-15T12:23:24;15.60;69.00
46754;DHT22;32500;50.620;3.400;2022-11-15T12:26:00;15.70;69.00
46754;DHT22;32500;50.620;3.400;2022-11-15T12:28:41;15.70;69.10
46754;DHT22;32500;50.620;3.400;2022-11-15T12:33:56;15.60;69.10
46754;DHT22;32500;50.620;3.400;2022-11-15T12:41:16;15.70;69.00
46754;DHT22;32500;50.620;3.400;2022-11-15T12:43:46;15.70;69.00
46754;DHT22;32500;50.620;3.400;2022-11-15T12:48:57;15.70;69.00
46754;DHT22;32500;50.620;3.400;2022-11-15T12:59:59;15.60;69.00
46754;DHT22;32500;50.620;3.400;2022-11-15T13:02:41;15.70;69.10
46754;DHT22;32500;50.620;3.400;2022-11-15T13:23:14;15.60;69.20
46754;DHT22;32500;50.620;3.400;2022-11-15T13:25:55;15.60;69.20
46754;DHT22;32500;50.620;3.400;2022-11-15T13:31:27;15.60;69.20
46754;DHT22;32500;50.620;3.400;2022-11-15T13:33:59;15.60;69.20
46754;DHT22;32500;50.620;3.400;2022-11-15T13:36:31;15.60;69.20
46754;DHT22;32500;50.620;3.400;2022-11-15T13:39:31;15.60;69.20
46754;DHT22;32500;50.620;3.400;2022-11-15T13:41:57;15.60;69.30
46754;DHT22;32500;50.620;3.400;2022-11-15T13:44:27;15.60;69.30
46754;DHT22;32500;50.620;3.400;2022-11-15T13:47:15;15.60;69.30
46754;DHT22;32500;50.620;3.400;2022-11-15T13:49:41;15.60;69.30
46754;DHT22;32500;50.620;3.400;2022-11-15T13:52:11;15.60;69.40
46754;DHT22;32500;50.620;3.400;2022-11-15T13:57:12;15.60;69.40
46754;DHT22;32500;50.620;3.400;2022-11-15T13:59:49;15.60;69.40
46754;DHT22;32500;50.620;3.400;2022-11-15T14:02:25;15.60;69.50
46754;DHT22;32500;50.620;3.400;2022-11-15T14:04:54;15.60;69.60
46754;DHT22;32500;50.620;3.400;2022-11-15T14:07:23;15.60;69.50
46754;DHT22;32500;50.620;3.400;2022-11-15T14:09:49;15.60;69.50
46754;DHT22;32500;50.620;3.400;2022-11-15T14:14:53;15.50;69.60
46754;DHT22;32500;50.620;3.400;2022-11-15T14:17:38;15.50;69.60
46754;DHT22;32500;50.620;3.400;2022-11-15T14:20:25;15.50;69.60
46754;DHT22;32500;50.620;3.400;2022-11-15T14:23:46;15.50;69.60
46754;DHT22;32500;50.620;3.400;2022-11-15T14:25:54;15.50;69.60
46754;DHT22;32500;50.620;3.400;2022-11-15T14:30:49;15.50;69.80
46754;DHT22;32500;50.620;3.400;2022-11-15T14:33:33;15.50;69.80
46754;DHT22;32500;50.620;3.400;2022-11-15T14:36:25;15.50;69.80
46754;DHT22;32500;50.620;3.400;2022-11-15T14:38:51;15.50;69.80
46754;DHT22;32500;50.620;3.400;2022-11-15T14:41:21;15.50;69.80
46754;DHT22;32500;50.620;3.400;2022-11-15T14:43:46;15.50;69.80
46754;DHT22;32500;50.620;3.400;2022-11-15T14:46:12;15.50;69.90
46754;DHT22;32500;50.620;3.400;2022-11-15T14:48:38;15.50;70.00
46754;DHT22;32500;50.620;3.400;2022-11-15T14:51:10;15.50;69.90
46754;DHT22;32500;50.620;3.400;2022-11-15T14:53:36;15.50;70.00
46754;DHT22;32500;50.620;3.400;2022-11-15T14:56:02;15.50;70.00
46754;DHT22;32500;50.620;3.400;2022-11-15T14:58:27;15.50;70.10
46754;DHT22;32500;50.620;3.400;2022-11-15T15:00:53;15.50;70.20
46754;DHT22;32500;50.620;3.400;2022-11-15T15:03:19;15.50;70.20
46754;DHT22;32500;50.620;3.400;2022-11-15T15:05:44;15.50;70.10
46754;DHT22;32500;50.620;3.400;2022-11-15T15:08:10;15.50;70.00
46754;DHT22;32500;50.620;3.400;2022-11-15T15:10:39;15.50;70.10
46754;DHT22;32500;50.620;3.400;2022-11-15T15:13:08;15.40;70.00
46754;DHT22;32500;50.620;3.400;2022-11-15T15:15:37;15.40;70.00
46754;DHT22;32500;50.620;3.400;2022-11-15T15:18:04;15.40;70.00
46754;DHT22;32500;50.620;3.400;2022-11-15T15:20:31;15.50;70.00
46754;DHT22;32500;50.620;3.400;2022-11-15T15:22:57;15.50;70.00
46754;DHT22;32500;50.620;3.400;2022-11-15T15:25:31;15.50;70.00
46754;DHT22;32500;50.620;3.400;2022-11-15T15:27:58;15.50;70.00
46754;DHT22;32500;50.620;3.400;2022-11-15T15:30:25;15.50;70.00
46754;DHT22;32500;50.620;3.400;2022-11-15T15:32:51;15.50;70.00
46754;DHT22;32500;50.620;3.400;2022-11-15T15:35:17;15.40;70.00
46754;DHT22;32500;50.620;3.400;2022-11-15T15:37:44;15.40;70.00
46754;DHT22;32500;50.620;3.400;2022-11-15T15:42:38;15.40;70.20
46754;DHT22;32500;50.620;3.400;2022-11-15T15:45:04;15.40;70.10
46754;DHT22;32500;50.620;3.400;2022-11-15T15:47:30;15.40;70.10
46754;DHT22;32500;50.620;3.400;2022-11-15T15:49:56;15.40;70.00
46754;DHT22;32500;50.620;3.400;2022-11-15T15:52:21;15.40;70.10
46754;DHT22;32500;50.620;3.400;2022-11-15T15:54:47;15.40;70.00
46754;DHT22;32500;50.620;3.400;2022-11-15T15:57:13;15.40;70.00
46754;DHT22;32500;50.620;3.400;2022-11-15T15:59:39;15.40;70.00
46754;DHT22;32500;50.620;3.400;2022-11-15T16:02:05;15.40;70.00
46754;DHT22;32500;50.620;3.400;2022-11-15T16:04:31;15.40;70.20
46754;DHT22;32500;50.620;3.400;2022-11-15T16:07:00;15.40;70.10
46754;DHT22;32500;50.620;3.400;2022-11-15T16:09:26;15.40;70.00
46754;DHT22;32500;50.620;3.400;2022-11-15T16:12:10;15.40;70.00
46754;DHT22;32500;50.620;3.400;2022-11-15T16:14:36;15.40;70.00
46754;DHT22;32500;50.620;3.400;2022-11-15T16:17:05;15.30;70.00
46754;DHT22;32500;50.620;3.400;2022-11-15T16:19:31;15.30;70.00
46754;DHT22;32500;50.620;3.400;2022-11-15T16:21:56;15.30;70.00
46754;DHT22;32500;50.620;3.400;2022-11-15T16:24:22;15.30;70.00
46754;DHT22;32500;50.620;3.400;2022-11-15T16:26:49;15.30;70.00
46754;DHT22;32500;50.620;3.400;2022-11-15T16:29:15;15.30;70.00
46754;DHT22;32500;50.620;3.400;2022-11-15T16:31:41;15.30;70.10
46754;DHT22;32500;50.620;3.400;2022-11-15T16:34:08;15.30;70.20
46754;DHT22;32500;50.620;3.400;2022-11-15T16:36:35;15.30;70.20
46754;DHT22;32500;50.620;3.400;2022-11-15T16:39:01;15.30;70.10
46754;DHT22;32500;50.620;3.400;2022-11-15T16:41:29;15.30;70.10
46754;DHT22;32500;50.620;3.400;2022-11-15T16:43:55;15.30;70.70
46754;DHT22;32500;50.620;3.400;2022-11-15T16:46:23;15.30;70.60
46754;DHT22;32500;50.620;3.400;2022-11-15T16:48:49;15.30;70.40
46754;DHT22;32500;50.620;3.400;2022-11-15T16:51:15;15.30;70.30
46754;DHT22;32500;50.620;3.400;2022-11-15T16:53:41;15.30;70.30
46754;DHT22;32500;50.620;3.400;2022-11-15T16:56:27;15.30;70.30
46754;DHT22;32500;50.620;3.400;2022-11-15T16:58:54;15.30;70.40
46754;DHT22;32500;50.620;3.400;2022-11-15T17:01:37;15.30;70.30
46754;DHT22;32500;50.620;3.400;2022-11-15T17:04:11;15.30;70.20
46754;DHT22;32500;50.620;3.400;2022-11-15T17:06:41;15.30;70.30
46754;DHT22;32500;50.620;3.400;2022-11-15T17:09:14;15.30;70.40
46754;DHT22;32500;50.620;3.400;2022-11-15T17:11:41;15.30;71.10
46754;DHT22;32500;50.620;3.400;2022-11-15T17:14:07;15.30;70.40
46754;DHT22;32500;50.620;3.400;2022-11-15T17:16:32;15.30;70.40
46754;DHT22;32500;50.620;3.400;2022-11-15T17:18:59;15.30;70.40
46754;DHT22;32500;50.620;3.400;2022-11-15T17:21:26;15.30;71.20
46754;DHT22;32500;50.620;3.400;2022-11-15T17:23:53;15.30;70.30
46754;DHT22;32500;50.620;3.400;2022-11-15T17:26:19;15.30;70.30
46754;DHT22;32500;50.620;3.400;2022-11-15T17:28:45;15.30;70.40
46754;DHT22;32500;50.620;3.400;2022-11-15T17:31:12;15.30;70.40
46754;DHT22;32500;50.620;3.400;2022-11-15T17:33:38;15.30;70.30
46754;DHT22;32500;50.620;3.400;2022-11-15T17:36:10;15.30;70.30
46754;DHT22;32500;50.620;3.400;2022-11-15T17:38:36;15.30;70.30
46754;DHT22;32500;50.620;3.400;2022-11-15T17:41:04;15.30;70.30
46754;DHT22;32500;50.620;3.400;2022-11-15T17:43:33;15.30;70.30